MI28 weather

Dow Division Heliport
Midland, Michigan, United States

Public forecast

Using degrees Fahrenheit for public forecast. Weather courtesy of forecast.io.

Closest aviation weather report (METAR) to Dow Division Heliport

Closest report is Jack Barstow Airport, 4.5 nm (8.3 km) NNW. Retrieved 2020/08/04 05:15 UTC (5 minutes ago):

KIKW 040515Z AUTO 36010KT 10SM OVC030 14/13 A3003 RMK AO2 T01350125

Closest aviation forecast (TAF) to Dow Division Heliport

Closest forecast is MBS International Airport, 7.2 nm (13.4 km) ESE. Retrieved 2020-08-04 00:36 UTC (5 hours ago):

TAF KMBS 032334Z 0400/0424 03013KT P6SM -RA BKN020 OVC030 FM040200 36007KT P6SM OVC015 FM041200 36008KT P6SM BKN020